createdAt,value
2023-02-18T00:01:30.511Z,83.70
2023-02-18T00:03:59.379Z,83.75
2023-02-18T00:06:32.102Z,83.79
2023-02-18T00:09:02.089Z,83.81
2023-02-18T00:11:30.983Z,83.85
2023-02-18T00:14:01.538Z,83.87
2023-02-18T00:16:29.967Z,83.91
2023-02-18T00:19:03.696Z,83.91
2023-02-18T00:21:32.169Z,83.94
2023-02-18T00:23:58.837Z,83.98
2023-02-18T00:26:26.005Z,84.02
2023-02-18T00:28:54.504Z,84.06
2023-02-18T00:31:30.079Z,84.09
2023-02-18T00:33:59.973Z,84.08
2023-02-18T00:36:28.411Z,84.13
2023-02-18T00:38:57.816Z,84.16
2023-02-18T00:41:26.980Z,84.18
2023-02-18T00:43:54.610Z,84.19
2023-02-18T00:46:22.694Z,84.21
2023-02-18T00:48:49.817Z,84.24
2023-02-18T00:51:16.974Z,84.28
2023-02-18T00:53:43.723Z,84.32
2023-02-18T00:56:10.976Z,84.35
2023-02-18T00:58:37.932Z,84.42
2023-02-18T01:01:07.668Z,84.46
2023-02-18T01:03:36.806Z,84.51
2023-02-18T01:06:04.879Z,84.58
2023-02-18T01:08:33.293Z,84.66
2023-02-18T01:11:01.064Z,84.71
2023-02-18T01:13:28.933Z,84.75
2023-02-18T01:15:55.806Z,84.80
2023-02-18T01:18:24.251Z,84.86
2023-02-18T01:20:50.908Z,84.93
2023-02-18T01:23:18.513Z,84.96
2023-02-18T01:25:45.445Z,84.99
2023-02-18T01:28:14.210Z,85.02
2023-02-18T01:30:41.613Z,85.06
2023-02-18T01:33:09.188Z,85.07
2023-02-18T01:35:40.057Z,85.11
2023-02-18T01:38:07.371Z,85.14
2023-02-18T01:40:35.270Z,85.17
2023-02-18T01:43:01.990Z,85.18
2023-02-18T01:45:34.883Z,85.20
2023-02-18T01:48:10.274Z,85.21
2023-02-18T01:50:41.791Z,85.26
2023-02-18T01:53:09.301Z,85.27
2023-02-18T01:55:38.266Z,85.25
2023-02-18T01:58:06.376Z,85.27
2023-02-18T02:00:33.665Z,85.29
2023-02-18T02:03:00.646Z,85.33
2023-02-18T02:05:31.965Z,85.34
2023-02-18T02:08:00.423Z,85.36
2023-02-18T02:10:42.834Z,85.37
2023-02-18T02:13:22.956Z,85.38
2023-02-18T02:15:58.920Z,85.42
2023-02-18T02:18:53.822Z,85.42
2023-02-18T02:21:36.997Z,85.42
2023-02-18T02:24:03.867Z,85.41
2023-02-18T02:26:49.319Z,85.47
2023-02-18T02:29:16.127Z,85.50
2023-02-18T02:31:51.575Z,85.52
2023-02-18T02:34:30.596Z,85.55
2023-02-18T02:37:00.082Z,85.58
2023-02-18T02:39:38.034Z,85.60
2023-02-18T02:42:24.025Z,85.65
2023-02-18T02:45:28.389Z,85.66
2023-02-18T02:48:04.369Z,85.62
2023-02-18T02:50:52.549Z,85.66
2023-02-18T02:53:25.252Z,85.71
2023-02-18T02:55:52.272Z,85.77
2023-02-18T02:58:19.826Z,85.77
2023-02-18T03:01:20.976Z,85.78
2023-02-18T03:04:13.043Z,85.74
2023-02-18T03:06:50.484Z,85.78
2023-02-18T03:09:20.426Z,85.79
2023-02-18T03:12:25.832Z,85.79
2023-02-18T03:15:12.859Z,85.79
2023-02-18T03:17:57.202Z,85.85
2023-02-18T03:20:31.729Z,85.88
2023-02-18T03:23:04.217Z,85.88
2023-02-18T03:25:33.843Z,85.93
2023-02-18T03:28:06.948Z,85.93
2023-02-18T03:30:42.063Z,85.93
2023-02-18T03:33:14.092Z,85.95
2023-02-18T03:35:42.317Z,85.98
2023-02-18T03:38:19.241Z,85.81
2023-02-18T03:40:46.906Z,85.96
2023-02-18T03:43:13.583Z,85.98
2023-02-18T03:45:40.410Z,85.99
2023-02-18T03:48:07.513Z,85.99
2023-02-18T03:50:34.211Z,86.01
2023-02-18T03:53:00.826Z,86.04
2023-02-18T03:55:27.750Z,86.06
2023-02-18T03:57:54.480Z,86.08
2023-02-18T04:00:21.517Z,86.12
2023-02-18T04:02:48.679Z,86.23
2023-02-18T04:05:15.352Z,86.31
2023-02-18T04:07:42.005Z,86.33
2023-02-18T04:10:09.573Z,86.34
2023-02-18T04:12:36.206Z,86.37
2023-02-18T04:15:02.984Z,86.37
2023-02-18T04:17:29.865Z,86.45
2023-02-18T04:19:56.484Z,86.46
2023-02-18T04:22:23.122Z,86.42
2023-02-18T04:24:50.018Z,86.44
2023-02-18T04:27:16.696Z,86.43
2023-02-18T04:29:43.709Z,86.42
2023-02-18T04:32:10.631Z,86.54
2023-02-18T04:34:37.252Z,86.55
2023-02-18T04:37:03.920Z,86.54
2023-02-18T04:39:30.817Z,86.55
2023-02-18T04:41:57.438Z,86.56
2023-02-18T04:44:24.073Z,86.58
2023-02-18T04:46:50.990Z,86.60
2023-02-18T04:49:17.643Z,86.62
2023-02-18T04:51:44.282Z,86.66
2023-02-18T04:54:11.208Z,86.68
2023-02-18T04:56:37.893Z,86.71
2023-02-18T04:59:04.638Z,86.74
2023-02-18T05:01:31.585Z,86.74
2023-02-18T05:03:58.249Z,86.78
2023-02-18T05:06:24.969Z,86.80
2023-02-18T05:08:51.820Z,86.88
2023-02-18T05:11:18.490Z,86.90
2023-02-18T05:13:45.129Z,86.90
2023-02-18T05:16:12.446Z,86.89
2023-02-18T05:18:39.677Z,86.87
2023-02-18T05:21:06.386Z,86.92
2023-02-18T05:23:33.465Z,86.91
2023-02-18T05:26:00.292Z,86.90
2023-02-18T05:28:26.987Z,86.92
2023-02-18T05:30:54.002Z,86.93
2023-02-18T05:33:20.723Z,86.99
2023-02-18T05:35:48.567Z,87.03
2023-02-18T05:38:15.586Z,87.10
2023-02-18T05:40:42.379Z,87.10
2023-02-18T05:43:09.062Z,87.10
2023-02-18T05:45:36.298Z,87.08
2023-02-18T05:48:03.477Z,87.09
2023-02-18T05:50:30.208Z,87.16
2023-02-18T05:52:57.093Z,87.21
2023-02-18T05:55:24.444Z,87.27
2023-02-18T05:57:51.480Z,87.29
2023-02-18T06:00:18.840Z,87.33
2023-02-18T06:02:45.821Z,87.41
2023-02-18T06:05:12.633Z,87.44
2023-02-18T06:07:39.257Z,87.44
2023-02-18T06:10:07.002Z,87.43
2023-02-18T06:12:33.665Z,87.45
2023-02-18T06:15:00.310Z,87.54
2023-02-18T06:17:27.377Z,87.64
2023-02-18T06:19:54.062Z,87.72
2023-02-18T06:22:20.806Z,87.72
2023-02-18T06:24:47.942Z,87.77
2023-02-18T06:27:14.635Z,87.80
2023-02-18T06:29:41.346Z,87.95
2023-02-18T06:32:08.386Z,88.08
2023-02-18T06:34:35.034Z,88.15
2023-02-18T06:37:01.629Z,88.17
2023-02-18T06:39:29.110Z,88.23
2023-02-18T06:41:55.729Z,88.33
2023-02-18T06:44:22.333Z,88.42
2023-02-18T06:46:49.286Z,88.33
2023-02-18T06:49:15.909Z,88.33
2023-02-18T06:51:42.568Z,88.30
2023-02-18T06:54:09.461Z,88.23
2023-02-18T06:56:36.149Z,88.23
2023-02-18T06:59:02.881Z,88.23
2023-02-18T07:01:29.863Z,88.20
2023-02-18T07:03:56.597Z,88.21
2023-02-18T07:06:23.372Z,88.21
2023-02-18T07:08:50.415Z,88.37
2023-02-18T07:11:17.176Z,88.48
2023-02-18T07:13:43.798Z,88.58
2023-02-18T07:16:11.299Z,88.55
2023-02-18T07:18:38.176Z,88.59
2023-02-18T07:21:04.982Z,88.61
2023-02-18T07:23:31.948Z,88.65
2023-02-18T07:26:10.295Z,88.75
2023-02-18T07:28:37.561Z,88.84
2023-02-18T07:31:04.915Z,88.79
2023-02-18T07:33:32.241Z,88.69
2023-02-18T07:36:01.024Z,88.60
2023-02-18T07:38:29.108Z,88.56
2023-02-18T07:40:56.299Z,88.45
2023-02-18T07:43:23.447Z,88.28
2023-02-18T07:45:50.370Z,88.12
2023-02-18T07:48:17.764Z,87.96
2023-02-18T07:50:45.976Z,87.73
2023-02-18T07:53:14.377Z,87.52
2023-02-18T07:55:50.284Z,87.31
2023-02-18T07:58:26.164Z,87.11
2023-02-18T08:00:54.572Z,87.00
2023-02-18T08:03:27.971Z,86.75
2023-02-18T08:05:55.480Z,86.58
2023-02-18T08:08:27.424Z,86.36
2023-02-18T08:10:56.475Z,86.08
2023-02-18T08:13:23.662Z,85.85
2023-02-18T08:15:50.529Z,85.62
2023-02-18T08:18:22.110Z,85.47
2023-02-18T08:20:50.423Z,85.42
2023-02-18T08:23:19.084Z,85.14
2023-02-18T08:25:50.002Z,85.01
2023-02-18T08:28:18.411Z,84.89
2023-02-18T08:30:49.813Z,84.75
2023-02-18T08:33:16.620Z,84.59
2023-02-18T08:35:45.435Z,84.42
2023-02-18T08:38:12.470Z,84.33
2023-02-18T08:40:40.878Z,84.05
2023-02-18T08:43:07.816Z,83.93
2023-02-18T08:45:36.034Z,83.83
2023-02-18T08:48:17.564Z,83.77
2023-02-18T08:50:47.920Z,83.68
2023-02-18T08:53:14.968Z,83.49
2023-02-18T08:55:41.847Z,82.97
2023-02-18T08:58:08.884Z,82.75
2023-02-18T09:00:36.531Z,82.76
2023-02-18T09:03:03.604Z,82.60
2023-02-18T09:05:30.638Z,82.29
2023-02-18T09:07:57.330Z,82.05
2023-02-18T09:10:24.967Z,81.43
2023-02-18T09:12:51.870Z,81.29
2023-02-18T09:15:18.647Z,81.34
2023-02-18T09:17:45.802Z,81.35
2023-02-18T09:20:13.400Z,81.26
2023-02-18T09:22:40.393Z,81.21
2023-02-18T09:25:07.459Z,81.18
2023-02-18T09:27:34.397Z,81.13
2023-02-18T09:30:01.201Z,80.89
2023-02-18T09:32:34.737Z,80.69
2023-02-18T09:35:03.882Z,80.51
2023-02-18T09:37:30.532Z,80.53
2023-02-18T09:39:57.285Z,80.64
2023-02-18T09:42:31.200Z,80.91
2023-02-18T09:45:02.517Z,81.04
2023-02-18T09:47:44.629Z,81.29
2023-02-18T09:50:21.130Z,81.45
2023-02-18T09:52:48.214Z,81.51
2023-02-18T09:55:17.006Z,81.10
2023-02-18T09:57:53.558Z,80.83
2023-02-18T10:00:50.663Z,80.47
2023-02-18T10:03:23.917Z,80.51
2023-02-18T10:06:04.294Z,80.04
2023-02-18T10:08:38.132Z,79.84
2023-02-18T10:11:12.464Z,79.29
2023-02-18T10:13:41.421Z,79.07
2023-02-18T10:16:10.033Z,78.35
2023-02-18T10:18:42.944Z,77.52
2023-02-18T10:21:14.093Z,77.47
2023-02-18T10:23:47.598Z,77.47
2023-02-18T10:26:17.678Z,77.45
2023-02-18T10:28:45.459Z,77.09
2023-02-18T10:31:18.945Z,76.92
2023-02-18T10:33:53.387Z,77.22
2023-02-18T10:36:27.579Z,77.15
2023-02-18T10:39:18.579Z,76.94
2023-02-18T10:42:14.382Z,76.78
2023-02-18T10:45:06.850Z,76.71
2023-02-18T10:47:43.186Z,76.43
2023-02-18T10:50:19.826Z,75.96
2023-02-18T10:52:52.280Z,75.80
2023-02-18T10:55:19.456Z,75.62
2023-02-18T10:57:47.726Z,75.37
2023-02-18T11:00:19.601Z,74.96
2023-02-18T11:02:47.269Z,74.82
2023-02-18T11:05:25.753Z,74.22
2023-02-18T11:07:56.889Z,74.23
2023-02-18T11:10:32.895Z,74.04
2023-02-18T11:13:07.076Z,73.73
2023-02-18T11:15:34.539Z,73.52
2023-02-18T11:18:35.351Z,72.07
2023-02-18T11:21:21.190Z,72.92
2023-02-18T11:23:54.144Z,71.99
2023-02-18T11:26:32.080Z,71.92
2023-02-18T11:29:21.371Z,71.04
2023-02-18T11:31:51.329Z,71.21
2023-02-18T11:34:31.372Z,70.48
2023-02-18T11:37:28.514Z,70.79
2023-02-18T11:39:56.261Z,70.45
2023-02-18T11:42:26.763Z,69.87
2023-02-18T11:44:59.244Z,69.04
2023-02-18T11:47:36.128Z,68.83
2023-02-18T11:50:08.784Z,68.86
2023-02-18T11:52:38.489Z,68.16
2023-02-18T11:55:07.427Z,68.36
2023-02-18T11:57:37.360Z,68.64
2023-02-18T12:00:15.453Z,68.98
2023-02-18T12:02:42.995Z,69.44
2023-02-18T12:05:13.123Z,69.51
2023-02-18T12:07:49.885Z,69.54
2023-02-18T12:10:31.960Z,69.78
2023-02-18T12:13:07.964Z,69.54
2023-02-18T12:15:47.256Z,69.47
2023-02-18T12:18:42.650Z,69.36
2023-02-18T12:21:31.880Z,69.04
2023-02-18T12:24:23.459Z,69.10
2023-02-18T12:27:15.538Z,68.96
2023-02-18T12:29:51.490Z,69.01
2023-02-18T12:32:46.539Z,68.07
2023-02-18T12:35:19.482Z,68.23
2023-02-18T12:38:08.364Z,67.79
2023-02-18T12:40:55.206Z,67.57
2023-02-18T12:43:53.422Z,67.32
2023-02-18T12:46:33.222Z,67.76
2023-02-18T12:49:06.358Z,66.24
2023-02-18T12:51:55.093Z,66.68
2023-02-18T12:54:55.252Z,67.35
2023-02-18T12:57:36.408Z,67.21
2023-02-18T13:00:25.390Z,67.35
2023-02-18T13:03:32.901Z,66.80
2023-02-18T13:06:14.645Z,67.37
2023-02-18T13:09:06.795Z,67.57
2023-02-18T13:11:52.256Z,67.57
2023-02-18T13:14:24.090Z,67.77
2023-02-18T13:16:55.778Z,67.48
2023-02-18T13:19:26.569Z,67.72
2023-02-18T13:21:58.901Z,67.11
2023-02-18T13:24:28.655Z,67.07
2023-02-18T13:27:03.118Z,67.55
2023-02-18T13:29:42.461Z,67.38
2023-02-18T13:32:37.213Z,67.46
2023-02-18T13:35:13.182Z,67.74
2023-02-18T13:38:01.473Z,67.85
2023-02-18T13:40:30.899Z,67.98
2023-02-18T13:43:18.262Z,68.50
2023-02-18T13:46:19.541Z,68.62
2023-02-18T13:48:52.376Z,68.70
2023-02-18T13:51:32.242Z,68.87
2023-02-18T13:54:17.692Z,68.87
2023-02-18T13:56:58.391Z,68.61
2023-02-18T13:59:31.707Z,68.75
2023-02-18T14:02:21.275Z,68.84
2023-02-18T14:04:51.628Z,68.93
2023-02-18T14:07:33.729Z,68.92
2023-02-18T14:10:04.303Z,69.00
2023-02-18T14:12:30.954Z,68.97
2023-02-18T14:14:58.883Z,68.80
2023-02-18T14:17:34.469Z,68.88
2023-02-18T14:20:01.086Z,68.55
2023-02-18T14:22:29.121Z,67.79
2023-02-18T14:25:02.425Z,68.22
2023-02-18T14:27:29.525Z,68.54
2023-02-18T14:30:04.372Z,68.76
2023-02-18T14:32:31.503Z,68.56
2023-02-18T14:35:15.205Z,68.14
2023-02-18T14:38:07.158Z,68.21
2023-02-18T14:40:55.748Z,68.32
2023-02-18T14:43:53.293Z,68.11
2023-02-18T14:46:36.101Z,68.31
2023-02-18T14:49:11.227Z,68.36
2023-02-18T14:51:43.176Z,68.21
2023-02-18T14:54:16.205Z,68.24
2023-02-18T14:56:54.268Z,68.25
2023-02-18T14:59:23.900Z,68.31
2023-02-18T15:01:55.482Z,68.33
2023-02-18T15:04:24.102Z,68.42
2023-02-18T15:07:05.424Z,68.43
2023-02-18T15:09:32.535Z,68.30
2023-02-18T15:12:05.593Z,68.30
2023-02-18T15:14:37.516Z,68.20
2023-02-18T15:17:06.415Z,68.18
2023-02-18T15:19:47.358Z,68.20
2023-02-18T15:22:22.810Z,68.17
2023-02-18T15:24:51.705Z,68.11
2023-02-18T15:27:22.855Z,67.82
2023-02-18T15:29:53.136Z,67.93
2023-02-18T15:32:25.198Z,67.90
2023-02-18T15:34:56.414Z,67.75
2023-02-18T15:37:23.238Z,67.82
2023-02-18T15:39:50.600Z,67.84
2023-02-18T15:42:30.196Z,67.51
2023-02-18T15:45:05.179Z,67.54
2023-02-18T15:47:33.021Z,67.44
2023-02-18T15:50:02.980Z,67.43
2023-02-18T15:52:33.234Z,67.28
2023-02-18T15:55:11.422Z,67.03
2023-02-18T15:57:40.133Z,67.25
2023-02-18T16:00:25.762Z,67.17
2023-02-18T16:03:15.194Z,67.11
2023-02-18T16:05:42.872Z,67.04
2023-02-18T16:08:17.178Z,67.09
2023-02-18T16:10:53.461Z,67.18
2023-02-18T16:13:21.672Z,67.21
2023-02-18T16:15:50.841Z,67.28
2023-02-18T16:18:36.037Z,67.30
2023-02-18T16:21:17.178Z,67.18
2023-02-18T16:23:56.535Z,67.15
2023-02-18T16:26:32.714Z,67.08
2023-02-18T16:29:13.884Z,67.19
2023-02-18T16:31:42.345Z,67.07
2023-02-18T16:34:09.086Z,67.02
2023-02-18T16:36:35.818Z,67.25
2023-02-18T16:39:03.318Z,67.19
2023-02-18T16:41:30.374Z,67.28
2023-02-18T16:43:57.801Z,67.32
2023-02-18T16:46:25.322Z,67.30
2023-02-18T16:48:57.438Z,67.15
2023-02-18T16:51:30.084Z,67.00
2023-02-18T16:53:57.528Z,67.05
2023-02-18T16:56:33.193Z,66.99
2023-02-18T16:59:00.274Z,67.02
2023-02-18T17:01:31.008Z,67.10
2023-02-18T17:04:02.193Z,67.09
2023-02-18T17:06:29.700Z,67.21
2023-02-18T17:08:56.524Z,67.22
2023-02-18T17:11:26.059Z,67.28
2023-02-18T17:13:54.509Z,67.22
2023-02-18T17:16:22.083Z,67.35
2023-02-18T17:18:48.865Z,67.39
2023-02-18T17:21:18.354Z,67.24
2023-02-18T17:23:45.449Z,67.39
2023-02-18T17:26:26.798Z,67.42
2023-02-18T17:28:55.344Z,67.43
2023-02-18T17:31:26.517Z,67.44
2023-02-18T17:33:55.390Z,67.44
2023-02-18T17:36:22.951Z,67.38
2023-02-18T17:38:49.623Z,67.43
2023-02-18T17:41:16.880Z,67.45
2023-02-18T17:43:43.711Z,67.40
2023-02-18T17:46:13.432Z,67.35
2023-02-18T17:48:41.592Z,67.31
2023-02-18T17:51:08.356Z,67.23
2023-02-18T17:53:35.421Z,67.18
2023-02-18T17:56:02.475Z,67.24
2023-02-18T17:58:29.115Z,67.10
2023-02-18T18:00:57.826Z,67.12
2023-02-18T18:03:24.917Z,67.01
2023-02-18T18:05:52.266Z,66.92
2023-02-18T18:08:19.310Z,67.16
2023-02-18T18:10:52.358Z,67.18
2023-02-18T18:13:23.064Z,67.10
2023-02-18T18:15:51.332Z,67.13
2023-02-18T18:18:18.982Z,67.15
2023-02-18T18:20:52.443Z,67.17
2023-02-18T18:23:21.384Z,67.02
2023-02-18T18:25:53.089Z,67.04
2023-02-18T18:28:20.446Z,67.10
2023-02-18T18:30:49.783Z,67.16
2023-02-18T18:33:20.819Z,67.08
2023-02-18T18:35:50.067Z,66.84
2023-02-18T18:38:20.521Z,66.79
2023-02-18T18:40:48.924Z,66.66
2023-02-18T18:43:26.371Z,66.81
2023-02-18T18:45:54.169Z,66.67
2023-02-18T18:48:21.702Z,66.79
2023-02-18T18:50:49.555Z,66.78
2023-02-18T18:53:20.055Z,66.67
2023-02-18T18:55:48.147Z,66.80
2023-02-18T18:58:20.491Z,66.77
2023-02-18T19:00:50.960Z,66.81
2023-02-18T19:03:18.291Z,66.48
2023-02-18T19:05:47.254Z,66.69
2023-02-18T19:08:17.924Z,66.58
2023-02-18T19:10:49.962Z,66.76
2023-02-18T19:13:18.505Z,66.75
2023-02-18T19:15:45.617Z,66.65
2023-02-18T19:18:18.728Z,66.58
2023-02-18T19:20:47.548Z,66.67
2023-02-18T19:23:14.333Z,66.58
2023-02-18T19:25:41.281Z,66.40
2023-02-18T19:28:13.848Z,66.43
2023-02-18T19:30:43.906Z,66.30
2023-02-18T19:33:13.442Z,66.31
2023-02-18T19:35:41.396Z,66.23
2023-02-18T19:38:12.728Z,66.18
2023-02-18T19:40:40.189Z,66.09
2023-02-18T19:43:07.737Z,65.91
2023-02-18T19:45:35.015Z,65.92
2023-02-18T19:48:02.210Z,66.05
2023-02-18T19:50:32.798Z,65.83
2023-02-18T19:53:00.028Z,65.77
2023-02-18T19:55:27.802Z,65.68
2023-02-18T19:57:54.642Z,65.61
2023-02-18T20:00:25.154Z,65.71
2023-02-18T20:02:52.495Z,65.59
2023-02-18T20:05:19.484Z,65.63
2023-02-18T20:07:46.863Z,65.28
2023-02-18T20:10:16.258Z,65.48
2023-02-18T20:12:43.295Z,65.20
2023-02-18T20:15:10.169Z,65.30
2023-02-18T20:17:38.935Z,65.08
2023-02-18T20:20:06.363Z,65.32
2023-02-18T20:22:38.076Z,65.27
2023-02-18T20:25:07.789Z,65.08
2023-02-18T20:27:42.984Z,65.00
2023-02-18T20:30:34.034Z,64.96
2023-02-18T20:33:01.243Z,64.75
2023-02-18T20:35:30.613Z,64.92
2023-02-18T20:37:57.842Z,64.98
2023-02-18T20:40:27.747Z,65.02
2023-02-18T20:42:54.842Z,65.00
2023-02-18T20:45:21.512Z,65.07
2023-02-18T20:47:48.255Z,65.07
2023-02-18T20:50:15.915Z,65.13
2023-02-18T20:52:42.629Z,65.04
2023-02-18T20:55:09.329Z,65.25
2023-02-18T20:57:36.388Z,65.32
2023-02-18T21:00:04.658Z,65.23
2023-02-18T21:02:31.315Z,65.33
2023-02-18T21:04:58.321Z,65.29
2023-02-18T21:07:25.188Z,65.29
2023-02-18T21:09:52.122Z,65.25
2023-02-18T21:12:19.303Z,65.37
2023-02-18T21:14:46.091Z,65.29
2023-02-18T21:17:12.750Z,65.32
2023-02-18T21:19:39.831Z,65.47
2023-02-18T21:22:06.540Z,65.57
2023-02-18T21:24:33.241Z,65.53
2023-02-18T21:27:00.509Z,65.54
2023-02-18T21:29:27.401Z,65.54
2023-02-18T21:31:54.141Z,65.63
2023-02-18T21:34:22.800Z,65.71
2023-02-18T21:36:49.608Z,65.71
2023-02-18T21:39:16.413Z,65.80
2023-02-18T21:41:43.715Z,65.86
2023-02-18T21:44:10.762Z,65.94
2023-02-18T21:46:37.801Z,65.99
2023-02-18T21:49:06.107Z,66.05
2023-02-18T21:51:56.843Z,66.15
2023-02-18T21:54:29.819Z,66.11
2023-02-18T21:56:58.472Z,66.24
2023-02-18T21:59:27.703Z,66.30
2023-02-18T22:01:55.236Z,66.40
2023-02-18T22:04:23.166Z,66.53
2023-02-18T22:06:49.841Z,66.54
2023-02-18T22:09:16.665Z,66.62
2023-02-18T22:11:43.896Z,66.70
2023-02-18T22:14:12.663Z,66.83
2023-02-18T22:16:40.840Z,66.85
2023-02-18T22:19:08.062Z,66.87
2023-02-18T22:21:35.004Z,66.92
2023-02-18T22:24:02.314Z,66.98
2023-02-18T22:26:29.311Z,66.99
2023-02-18T22:28:58.042Z,67.06
2023-02-18T22:31:27.135Z,66.98
2023-02-18T22:33:55.744Z,66.96
2023-02-18T22:36:23.896Z,66.92
2023-02-18T22:38:51.339Z,66.96
2023-02-18T22:41:21.020Z,67.01
2023-02-18T22:43:47.816Z,66.99
2023-02-18T22:46:18.331Z,67.01
2023-02-18T22:48:45.783Z,67.06
2023-02-18T22:51:23.437Z,67.01
2023-02-18T22:53:53.001Z,67.03
2023-02-18T22:56:20.831Z,67.06
2023-02-18T22:58:50.388Z,67.08
2023-02-18T23:01:24.311Z,67.05
2023-02-18T23:03:53.013Z,67.12
2023-02-18T23:06:21.771Z,67.18
2023-02-18T23:08:49.544Z,67.21
2023-02-18T23:11:18.979Z,67.23
2023-02-18T23:14:06.604Z,67.24
2023-02-18T23:16:53.882Z,67.28
2023-02-18T23:19:21.362Z,67.29
2023-02-18T23:21:48.172Z,67.36
2023-02-18T23:24:14.915Z,67.42
2023-02-18T23:26:41.964Z,67.44
2023-02-18T23:29:09.320Z,67.48
2023-02-18T23:31:38.982Z,67.47
2023-02-18T23:34:08.130Z,67.47
2023-02-18T23:36:35.788Z,67.46
2023-02-18T23:39:05.717Z,67.47
2023-02-18T23:41:32.621Z,67.53
2023-02-18T23:43:59.241Z,67.59
2023-02-18T23:46:26.774Z,67.56
2023-02-18T23:48:53.977Z,67.58
2023-02-18T23:51:23.300Z,67.56
2023-02-18T23:53:50.478Z,67.62
2023-02-18T23:56:25.281Z,67.69
2023-02-18T23:58:54.938Z,67.75
